Time;durP1;ratioP1;P1;durP2;ratioP2;P2;SDS_P1;SDS_P2;PMS_P1;PMS_P2;Temp;Humidity;BMP_temperature;BMP_pressure;BME280_temperature;BME280_humidity;BME280_pressure;Samples;Min_cycle;Max_cycle;Signal;HPM_P1;HPM_P2
2021/08/27 00:00:50;;;;;;;7.10;1.63;;;;;;;13.12;77.91;101160.19;10099466;28;20078;-67
2021/08/27 00:05:47;;;;;;;6.20;1.65;;;;;;;12.97;78.06;101150.50;10114523;28;20051;-68
2021/08/27 00:10:43;;;;;;;5.57;1.10;;;;;;;12.98;78.39;101152.13;10104925;28;20579;-67
2021/08/27 00:15:40;;;;;;;6.95;1.38;;;;;;;12.89;78.66;101148.56;10103823;28;20067;-67
2021/08/27 00:20:38;;;;;;;6.30;1.63;;;;;;;12.86;78.75;101150.03;10110301;28;20043;-67
2021/08/27 00:25:34;;;;;;;5.25;1.67;;;;;;;12.80;78.73;101152.09;10113175;28;20047;-67
2021/08/27 00:30:31;;;;;;;5.82;1.60;;;;;;;12.72;79.41;101144.69;10111822;28;20039;-69
2021/08/27 00:35:28;;;;;;;7.13;1.80;;;;;;;12.64;79.61;101148.22;10109911;28;20085;-69
2021/08/27 00:40:25;;;;;;;7.40;2.05;;;;;;;12.61;80.21;101140.66;10111819;28;20047;-68
2021/08/27 00:45:21;;;;;;;6.90;1.83;;;;;;;12.63;79.79;101141.13;10110169;28;20094;-68
2021/08/27 00:50:18;;;;;;;7.47;1.52;;;;;;;12.59;79.78;101140.16;10104671;28;20102;-68
2021/08/27 00:55:14;;;;;;;9.50;1.70;;;;;;;12.52;79.88;101134.34;10110090;28;20665;-68
2021/08/27 01:00:11;;;;;;;6.85;1.50;;;;;;;12.49;80.21;101126.75;10106382;28;20102;-70
2021/08/27 01:05:10;;;;;;;7.57;1.73;;;;;;;12.55;80.01;101120.78;10104801;28;20577;-71
2021/08/27 01:10:15;;;;;;;5.68;1.83;;;;;;;12.51;79.85;101117.09;10103079;28;20078;-72
2021/08/27 01:15:15;;;;;;;7.28;2.30;;;;;;;12.53;79.97;101119.47;10102553;28;20070;-69
2021/08/27 01:20:43;;;;;;;6.72;1.73;;;;;;;12.42;79.73;101119.81;10110746;28;20046;-70
2021/08/27 01:25:47;;;;;;;8.98;2.20;;;;;;;12.43;79.76;101115.13;10104525;28;20055;-69
2021/08/27 01:30:59;;;;;;;4.95;1.60;;;;;;;12.44;79.69;101105.78;10108438;28;20042;-71
2021/08/27 01:35:59;;;;;;;4.57;1.35;;;;;;;12.43;79.44;101113.19;10110975;28;20050;-70
2021/08/27 01:40:56;;;;;;;4.15;1.70;;;;;;;12.36;79.78;101114.78;10112522;28;20116;-70
2021/08/27 01:45:58;;;;;;;8.02;1.80;;;;;;;12.37;79.80;101111.75;10108551;28;20051;-72
2021/08/27 01:50:55;;;;;;;6.70;1.95;;;;;;;12.38;79.47;101113.34;10103492;28;20061;-71
2021/08/27 01:55:59;;;;;;;8.00;1.58;;;;;;;12.40;79.72;101111.09;10101203;28;20461;-68
2021/08/27 02:00:57;;;;;;;7.18;2.03;;;;;;;12.36;79.41;101101.09;10098563;28;20125;-70
2021/08/27 02:05:55;;;;;;;5.82;1.80;;;;;;;12.29;79.35;101098.81;10104776;28;20046;-69
2021/08/27 02:10:53;;;;;;;8.82;1.73;;;;;;;12.21;79.43;101108.66;10100754;28;20067;-69
2021/08/27 02:15:51;;;;;;;7.15;2.05;;;;;;;12.36;79.50;101104.63;10108468;28;20046;-69
2021/08/27 02:20:48;;;;;;;7.32;1.65;;;;;;;12.43;79.00;101115.13;10104514;28;20050;-69
2021/08/27 02:25:47;;;;;;;6.82;1.80;;;;;;;12.50;78.62;101109.97;10101999;28;20142;-70
2021/08/27 02:30:45;;;;;;;7.15;2.22;;;;;;;12.54;78.71;101101.91;10097163;28;20133;-69
2021/08/27 02:35:44;;;;;;;9.25;1.95;;;;;;;12.58;78.41;101100.16;10101798;28;20051;-69
2021/08/27 02:40:40;;;;;;;5.30;1.48;;;;;;;12.59;78.29;101101.75;10103894;28;20402;-69
2021/08/27 02:45:37;;;;;;;6.47;1.48;;;;;;;12.64;77.96;101098.84;10098048;28;20043;-70
2021/08/27 02:50:50;;;;;;;7.65;1.40;;;;;;;12.65;78.01;101095.00;10106282;28;20046;-69
2021/08/27 02:55:54;;;;;;;6.00;1.60;;;;;;;12.68;77.87;101097.06;10100128;28;20122;-70
2021/08/27 03:01:00;;;;;;;4.38;1.58;;;;;;;12.72;77.74;101089.81;10098228;28;20063;-69
2021/08/27 03:06:06;;;;;;;8.05;1.38;;;;;;;12.72;78.00;101084.34;10102959;28;20105;-69
2021/08/27 03:11:14;;;;;;;11.32;1.73;;;;;;;12.75;77.87;101080.94;10102779;28;20042;-70
2021/08/27 03:16:15;;;;;;;5.35;1.60;;;;;;;12.80;78.07;101080.75;10099120;28;20077;-69
2021/08/27 03:21:22;;;;;;;8.75;1.63;;;;;;;12.80;77.90;101079.97;10109500;28;20077;-69
2021/08/27 03:26:22;;;;;;;5.85;1.70;;;;;;;12.76;78.21;101063.31;10100837;28;20130;-69
2021/08/27 03:31:22;;;;;;;5.55;1.70;;;;;;;12.81;78.33;101065.94;10098078;28;20493;-69
2021/08/27 03:36:19;;;;;;;8.10;1.70;;;;;;;12.81;78.53;101065.94;10103618;28;20050;-69
2021/08/27 03:41:17;;;;;;;7.25;1.95;;;;;;;12.79;78.49;101051.72;10101555;28;20555;-69
2021/08/27 03:46:14;;;;;;;8.93;1.77;;;;;;;12.81;78.53;101052.22;10099568;28;20105;-69
2021/08/27 03:51:11;;;;;;;6.90;1.77;;;;;;;12.82;78.63;101051.06;10096822;28;20515;-69
2021/08/27 03:56:09;;;;;;;5.50;1.65;;;;;;;12.82;78.60;101055.75;10101888;28;20078;-70
2021/08/27 04:01:06;;;;;;;6.05;1.63;;;;;;;12.76;79.11;101040.56;10094286;28;20692;-69
2021/08/27 04:06:06;;;;;;;6.18;1.63;;;;;;;12.82;79.12;101050.25;10110250;28;20113;-70
2021/08/27 04:11:04;;;;;;;8.40;1.70;;;;;;;12.80;78.87;101058.00;10104037;28;20047;-69
2021/08/27 04:16:01;;;;;;;6.43;1.73;;;;;;;12.73;79.64;101047.53;10084532;28;20078;-69
2021/08/27 04:20:59;;;;;;;7.28;1.33;;;;;;;12.71;79.46;101049.78;10088982;28;20078;-68
2021/08/27 04:25:56;;;;;;;9.15;1.98;;;;;;;12.78;79.41;101044.59;10081224;28;20066;-69
2021/08/27 04:30:53;;;;;;;5.55;1.65;;;;;;;12.81;79.36;101038.50;10085167;28;20568;-70
2021/08/27 04:35:50;;;;;;;6.80;1.77;;;;;;;12.83;79.44;101041.72;10088081;28;21378;-68
2021/08/27 04:40:46;;;;;;;7.93;1.90;;;;;;;12.82;80.41;101031.06;10084373;28;20047;-68
2021/08/27 04:45:43;;;;;;;8.85;2.03;;;;;;;12.74;81.34;101040.09;10094428;28;20061;-68
2021/08/27 04:50:40;;;;;;;6.85;2.17;;;;;;;12.73;82.14;101035.75;10094123;28;20072;-68
2021/08/27 04:55:36;;;;;;;5.68;2.08;;;;;;;12.73;82.72;101036.53;10088545;28;20729;-68
2021/08/27 05:00:33;;;;;;;9.82;2.22;;;;;;;12.76;83.04;101037.84;10091081;28;20113;-68
2021/08/27 05:05:30;;;;;;;7.10;1.50;;;;;;;12.78;83.46;101050.09;10099057;28;20073;-68
2021/08/27 05:10:26;;;;;;;8.88;1.63;;;;;;;12.84;83.71;101048.81;10086792;28;20047;-68
2021/08/27 05:15:24;;;;;;;5.10;1.30;;;;;;;12.90;84.29;101045.88;10093344;28;20055;-67
2021/08/27 05:20:21;;;;;;;9.70;1.83;;;;;;;12.92;84.90;101043.63;10093093;28;20137;-67
2021/08/27 05:25:17;;;;;;;5.13;1.85;;;;;;;13.02;84.79;101059.78;10090414;28;20058;-66
2021/08/27 05:30:14;;;;;;;7.03;1.73;;;;;;;13.09;85.31;101049.09;10082292;28;20044;-66
2021/08/27 05:35:12;;;;;;;10.02;1.67;;;;;;;13.15;85.23;101053.25;10087361;28;20086;-67
2021/08/27 05:40:09;;;;;;;6.07;1.65;;;;;;;13.18;85.78;101052.63;10107771;28;20489;-67
2021/08/27 05:45:07;;;;;;;5.10;1.25;;;;;;;13.23;85.70;101051.66;10103312;28;20137;-67
2021/08/27 05:50:07;;;;;;;5.45;2.10;;;;;;;13.23;86.58;101055.19;10099504;28;20412;-67
2021/08/27 05:55:04;;;;;;;7.50;1.83;;;;;;;13.30;86.78;101064.88;10106505;28;20817;-68
2021/08/27 06:00:00;;;;;;;5.18;1.40;;;;;;;13.25;87.26;101061.16;10100180;28;20465;-68
2021/08/27 06:04:59;;;;;;;7.85;1.75;;;;;;;13.23;86.81;101066.19;10094901;28;20440;-68
2021/08/27 06:09:56;;;;;;;8.15;1.40;;;;;;;13.30;87.13;101071.19;10094510;28;20123;-67
2021/08/27 06:14:53;;;;;;;7.63;2.08;;;;;;;13.34;87.42;101071.34;10090839;28;20043;-67
2021/08/27 06:19:50;;;;;;;6.72;1.48;;;;;;;13.31;88.04;101074.75;10089695;28;20059;-67
2021/08/27 06:24:46;;;;;;;6.25;1.50;;;;;;;13.26;88.84;101079.25;10091619;28;20042;-68
2021/08/27 06:29:43;;;;;;;8.05;1.30;;;;;;;13.35;89.47;101078.47;10092504;28;20035;-67
2021/08/27 06:34:39;;;;;;;4.68;1.40;;;;;;;13.41;90.07;101082.63;10096843;28;20472;-68
2021/08/27 06:39:36;;;;;;;5.18;1.50;;;;;;;13.41;90.66;101088.94;10091622;28;20118;-67
2021/08/27 06:44:33;;;;;;;4.70;1.40;;;;;;;13.41;90.76;101093.59;10088743;28;20078;-68
2021/08/27 06:49:29;;;;;;;3.80;1.02;;;;;;;13.45;90.95;101091.81;10091436;28;20469;-68
2021/08/27 06:54:26;;;;;;;6.85;2.15;;;;;;;13.52;90.79;101094.88;10084924;28;20364;-68
2021/08/27 06:59:22;;;;;;;7.47;1.58;;;;;;;13.55;90.56;101096.94;10089524;28;20062;-68
2021/08/27 07:04:19;;;;;;;6.78;1.30;;;;;;;13.57;91.35;101102.91;10084593;28;20482;-67
2021/08/27 07:09:15;;;;;;;5.57;1.70;;;;;;;13.61;91.09;101098.38;10084648;28;20085;-75
2021/08/27 07:14:12;;;;;;;3.88;1.33;;;;;;;13.68;91.69;101089.63;10085883;28;20537;-68
2021/08/27 07:19:08;;;;;;;5.40;1.95;;;;;;;13.65;92.77;101099.34;10081176;28;20086;-67
2021/08/27 07:24:05;;;;;;;7.47;2.25;;;;;;;13.74;92.75;101107.56;10084375;28;20479;-68
2021/08/27 07:29:02;;;;;;;5.35;1.55;;;;;;;13.85;92.45;101107.97;10088156;28;20560;-67
2021/08/27 07:33:58;;;;;;;4.75;2.00;;;;;;;13.90;92.25;101110.53;10100172;28;20043;-67
2021/08/27 07:38:55;;;;;;;4.43;1.52;;;;;;;13.93;92.37;101104.41;10089988;28;20082;-68
2021/08/27 07:43:51;;;;;;;11.25;4.30;;;;;;;13.99;91.88;101118.75;10090713;28;20134;-67
2021/08/27 07:48:47;;;;;;;6.00;1.75;;;;;;;13.99;92.44;101114.06;10088503;28;20184;-67
2021/08/27 07:53:44;;;;;;;4.72;1.80;;;;;;;13.97;92.82;101121.84;10085056;28;20074;-68
2021/08/27 07:58:40;;;;;;;4.68;1.85;;;;;;;14.03;92.62;101134.25;10085669;28;20462;-67
2021/08/27 08:03:37;;;;;;;6.50;2.10;;;;;;;14.13;93.11;101124.03;10081386;28;20039;-67
2021/08/27 08:08:33;;;;;;;7.28;1.80;;;;;;;14.29;93.58;101130.56;10090165;28;20071;-67
2021/08/27 08:13:30;;;;;;;6.03;1.98;;;;;;;14.50;93.25;101127.84;10086873;28;20106;-68
2021/08/27 08:18:26;;;;;;;4.80;1.40;;;;;;;14.64;93.15;101138.59;10097269;28;20055;-68
2021/08/27 08:23:27;;;;;;;3.40;1.60;;;;;;;14.71;92.84;101149.88;10096434;28;20560;-68
2021/08/27 08:28:23;;;;;;;6.22;1.85;;;;;;;14.78;92.45;101144.66;10095236;28;20489;-67
2021/08/27 08:33:20;;;;;;;4.93;1.45;;;;;;;14.82;92.34;101151.09;10098942;28;20081;-68
2021/08/27 08:38:18;;;;;;;6.10;1.50;;;;;;;14.87;91.77;101156.41;10094339;28;20047;-68
2021/08/27 08:43:15;;;;;;;3.30;1.42;;;;;;;14.86;91.48;101157.56;10091802;28;20098;-68
2021/08/27 08:48:12;;;;;;;5.53;1.33;;;;;;;14.87;90.93;101159.16;10097733;28;20131;-69
2021/08/27 08:53:10;;;;;;;4.22;1.55;;;;;;;15.09;91.37;101160.75;10096410;28;20592;-69
2021/08/27 08:58:07;;;;;;;4.25;1.40;;;;;;;15.22;90.61;101158.84;10093169;28;20145;-68
2021/08/27 09:03:05;;;;;;;3.38;0.70;;;;;;;15.35;89.90;101163.25;10098516;28;20076;-68
2021/08/27 09:08:01;;;;;;;3.67;0.98;;;;;;;15.45;89.27;101166.75;10094663;28;20047;-68
2021/08/27 09:13:06;;;;;;;3.67;0.90;;;;;;;15.54;89.15;101170.22;10101530;28;20078;-68
2021/08/27 09:18:09;;;;;;;3.30;0.73;;;;;;;15.48;87.48;101171.56;10095463;28;20046;-68
2021/08/27 09:23:06;;;;;;;3.03;0.93;;;;;;;15.41;88.21;101165.81;10092645;28;20152;-68
2021/08/27 09:28:15;;;;;;;3.00;0.88;;;;;;;15.52;87.37;101172.50;10093939;28;20044;-68
2021/08/27 09:33:21;;;;;;;3.63;1.30;;;;;;;15.83;85.14;101173.97;10095137;28;20140;-68
2021/08/27 09:38:17;;;;;;;2.17;0.55;;;;;;;16.27;84.83;101174.22;10094139;28;20475;-68
2021/08/27 09:43:24;;;;;;;2.55;0.68;;;;;;;16.61;84.13;101168.22;10092368;28;20047;-69
2021/08/27 09:48:20;;;;;;;2.95;0.80;;;;;;;16.53;83.82;101171.91;10095602;28;20118;-68
2021/08/27 09:53:18;;;;;;;2.88;0.80;;;;;;;16.90;82.26;101180.16;10092163;28;20070;-68
2021/08/27 09:58:15;;;;;;;2.25;0.65;;;;;;;16.65;79.52;101182.13;10083542;28;20043;-67
2021/08/27 10:03:19;;;;;;;5.25;0.50;;;;;;;16.42;80.03;101182.63;10094890;28;20055;-68
2021/08/27 10:08:25;;;;;;;6.93;0.70;;;;;;;16.22;80.05;101188.25;10088043;28;20053;-68
2021/08/27 10:13:23;;;;;;;1.88;0.55;;;;;;;16.08;81.37;101200.47;10089582;28;20158;-68
2021/08/27 10:18:20;;;;;;;6.07;1.42;;;;;;;15.90;83.50;101205.38;10102085;28;20116;-68
2021/08/27 10:23:18;;;;;;;6.15;1.17;;;;;;;15.83;85.58;101204.28;10095890;28;20139;-66
2021/08/27 10:28:15;;;;;;;4.80;1.23;;;;;;;16.25;87.61;101209.66;10098660;28;20047;-68
2021/08/27 10:33:11;;;;;;;5.22;0.95;;;;;;;16.56;85.63;101207.09;10093403;28;20702;-67
2021/08/27 10:38:08;;;;;;;2.53;0.88;;;;;;;16.52;85.89;101208.13;10095296;28;20135;-68
2021/08/27 10:43:05;;;;;;;6.10;0.90;;;;;;;16.54;83.93;101211.38;10086505;28;20129;-67
2021/08/27 10:48:15;;;;;;;3.55;0.75;;;;;;;16.76;85.36;101201.81;10093341;28;20078;-68
2021/08/27 10:53:22;;;;;;;3.88;0.90;;;;;;;17.69;82.65;101204.47;10091911;28;20113;-68
2021/08/27 10:58:23;;;;;;;2.80;0.77;;;;;;;17.93;80.15;101205.50;10085330;28;20474;-67
2021/08/27 11:03:40;;;;;;;3.45;0.68;;;;;;;17.54;74.42;101202.47;10082825;28;20137;-66
2021/08/27 11:08:36;;;;;;;4.88;1.00;;;;;;;17.17;73.55;101205.38;10090680;28;20058;-68
2021/08/27 11:13:38;;;;;;;2.10;1.00;;;;;;;17.06;72.26;101226.38;10089044;28;20047;-68
2021/08/27 11:18:37;;;;;;;1.67;0.63;;;;;;;16.97;72.83;101227.31;10091153;28;20039;-67
2021/08/27 11:23:53;;;;;;;5.20;0.63;;;;;;;17.30;71.55;101223.53;10091030;28;20528;-67
2021/08/27 11:28:51;;;;;;;3.22;0.63;;;;;;;18.12;71.52;101222.19;10085288;28;20122;-67
2021/08/27 11:33:50;;;;;;;2.75;0.80;;;;;;;17.93;68.98;101224.88;10083621;28;20078;-67
2021/08/27 11:38:51;;;;;;;5.68;0.75;;;;;;;18.34;69.75;101219.97;10086185;28;20106;-67
2021/08/27 11:43:59;;;;;;;2.20;0.68;;;;;;;18.17;70.03;101230.25;10094421;28;20055;-67
2021/08/27 11:49:32;;;;;;;1.50;0.68;;;;;;;18.29;69.44;101227.38;10100509;28;20039;-66
2021/08/27 11:54:30;;;;;;;2.47;0.68;;;;;;;18.34;70.06;101233.81;10089615;28;20051;-69
2021/08/27 11:59:31;;;;;;;2.90;0.47;;;;;;;17.85;70.21;101246.81;10097220;28;20057;-67
2021/08/27 12:04:30;;;;;;;1.88;0.43;;;;;;;17.50;71.81;101256.84;10085750;28;20694;-68
2021/08/27 12:09:26;;;;;;;4.15;0.93;;;;;;;16.96;74.79;101256.06;10095248;28;20051;-69
2021/08/27 12:14:50;;;;;;;2.08;0.60;;;;;;;16.79;76.06;101256.34;10095796;28;20145;-69
2021/08/27 12:19:47;;;;;;;3.85;1.08;;;;;;;16.74;76.33;101264.84;10098242;28;20105;-70
2021/08/27 12:24:45;;;;;;;3.85;0.70;;;;;;;16.78;78.15;101254.72;10095932;28;20070;-67
2021/08/27 12:29:41;;;;;;;4.03;0.90;;;;;;;16.81;77.38;101254.84;10089817;28;20135;-68
2021/08/27 12:34:59;;;;;;;3.42;0.80;;;;;;;16.76;76.93;101268.06;10097011;28;20166;-67
2021/08/27 12:39:55;;;;;;;2.03;0.98;;;;;;;16.86;77.73;101267.63;10095260;28;20683;-65
2021/08/27 12:44:57;;;;;;;2.80;0.70;;;;;;;16.94;77.30;101266.69;10087437;28;20055;-68
2021/08/27 12:49:59;;;;;;;1.88;0.60;;;;;;;17.79;75.38;101270.31;10087784;28;20102;-65
2021/08/27 12:54:56;;;;;;;1.45;0.50;;;;;;;18.42;72.51;101263.25;10094635;28;20050;-66
2021/08/27 13:00:03;;;;;;;1.85;0.47;;;;;;;18.51;71.45;101274.94;10092966;28;20399;-67
2021/08/27 13:05:00;;;;;;;1.55;0.38;;;;;;;18.15;69.57;101271.31;10110430;28;20125;-66
2021/08/27 13:10:09;;;;;;;2.08;0.30;;;;;;;17.94;71.49;101276.25;10109044;28;20078;-67
2021/08/27 13:15:27;;;;;;;1.25;0.30;;;;;;;18.04;68.45;101271.00;10102952;28;20516;-66
2021/08/27 13:20:29;;;;;;;1.92;0.60;;;;;;;18.03;67.98;101271.34;10101180;28;20050;-66
2021/08/27 13:25:29;;;;;;;1.15;0.40;;;;;;;17.95;69.21;101273.16;10100754;28;20472;-66
2021/08/27 13:30:25;;;;;;;3.33;0.50;;;;;;;17.83;68.29;101287.84;10092580;28;20047;-67
2021/08/27 13:35:23;;;;;;;3.38;0.45;;;;;;;17.83;68.33;101282.31;10096013;28;20109;-67
2021/08/27 13:40:22;;;;;;;2.03;0.60;;;;;;;18.18;68.41;101287.19;10096761;28;20098;-67
2021/08/27 13:45:19;;;;;;;1.35;0.47;;;;;;;18.29;67.30;101299.34;10098768;28;20097;-67
2021/08/27 13:50:15;;;;;;;2.88;0.70;;;;;;;18.63;65.98;101297.00;10092122;28;20065;-67
2021/08/27 13:55:17;;;;;;;2.03;0.32;;;;;;;19.00;65.73;101304.22;10089228;28;20825;-68
2021/08/27 14:00:15;;;;;;;2.92;0.30;;;;;;;19.02;64.36;101308.22;10095837;28;20043;-68
2021/08/27 14:05:13;;;;;;;1.67;0.55;;;;;;;18.88;64.27;101310.69;10108833;28;20047;-67
2021/08/27 14:10:10;;;;;;;2.50;0.60;;;;;;;18.79;64.43;101304.53;10101132;28;20439;-68
2021/08/27 14:15:09;;;;;;;5.30;0.50;;;;;;;18.62;64.78;101325.88;10106806;28;20046;-67
2021/08/27 14:20:06;;;;;;;2.33;0.28;;;;;;;18.29;65.89;101323.47;10112097;28;20050;-68
2021/08/27 14:25:03;;;;;;;2.65;0.63;;;;;;;18.23;66.28;101320.13;10101230;28;20054;-68
2021/08/27 14:30:05;;;;;;;2.88;0.30;;;;;;;18.18;66.75;101325.94;10103173;28;20046;-68
2021/08/27 14:35:02;;;;;;;1.70;0.60;;;;;;;18.21;67.18;101319.69;10103495;28;20134;-67
2021/08/27 14:39:58;;;;;;;1.80;0.45;;;;;;;18.21;66.94;101329.94;10109154;28;20057;-68
2021/08/27 14:44:58;;;;;;;3.40;0.30;;;;;;;18.27;65.12;101328.53;10097318;28;20787;-68
2021/08/27 14:49:55;;;;;;;1.90;0.43;;;;;;;18.27;64.82;101328.53;10103464;28;20097;-68
2021/08/27 14:54:51;;;;;;;2.55;0.60;;;;;;;18.35;65.69;101340.59;10098329;28;20074;-68
2021/08/27 14:59:48;;;;;;;3.40;0.60;;;;;;;18.48;64.66;101328.28;10105975;28;20098;-67
2021/08/27 15:04:44;;;;;;;1.95;0.20;;;;;;;18.65;63.49;101333.44;10104322;28;20058;-68
2021/08/27 15:09:41;;;;;;;1.35;0.38;;;;;;;18.85;63.49;101336.34;10099693;28;20042;-68
2021/08/27 15:14:37;;;;;;;2.72;0.65;;;;;;;18.97;63.19;101339.00;10101504;28;20462;-67
2021/08/27 15:19:33;;;;;;;2.75;0.45;;;;;;;19.17;62.30;101347.34;10106164;28;20760;-67
2021/08/27 15:24:30;;;;;;;2.63;0.30;;;;;;;19.13;62.69;101342.53;10095313;28;20050;-68
2021/08/27 15:29:26;;;;;;;2.70;0.40;;;;;;;18.84;58.92;101356.88;10104359;28;20137;-68
2021/08/27 15:34:23;;;;;;;0.85;0.30;;;;;;;18.65;60.08;101361.16;10099574;28;20082;-68
2021/08/27 15:39:20;;;;;;;1.00;0.20;;;;;;;18.70;57.76;101363.66;10100445;28;20035;-67
2021/08/27 15:44:16;;;;;;;1.52;0.22;;;;;;;18.92;60.37;101364.22;10104328;28;20047;-68
2021/08/27 15:49:13;;;;;;;1.35;0.28;;;;;;;19.09;62.27;101366.59;10083019;28;20569;-68
2021/08/27 15:54:09;;;;;;;3.92;0.32;;;;;;;18.99;60.07;101369.94;10103936;28;20043;-68
2021/08/27 15:59:06;;;;;;;2.15;0.30;;;;;;;18.76;61.59;101388.31;10107570;28;20035;-68
2021/08/27 16:04:02;;;;;;;2.25;0.40;;;;;;;18.51;63.08;101391.25;10098066;28;20074;-68
2021/08/27 16:08:59;;;;;;;4.70;0.50;;;;;;;18.68;61.75;101392.84;10104134;28;20075;-68
2021/08/27 16:13:56;;;;;;;2.55;0.35;;;;;;;18.94;63.46;101392.38;10103032;28;20058;-68
2021/08/27 16:18:52;;;;;;;2.53;0.47;;;;;;;19.46;60.56;101391.19;10097632;28;20046;-69
2021/08/27 16:23:49;;;;;;;2.83;0.40;;;;;;;19.95;59.30;101403.75;10108498;28;20134;-68
2021/08/27 16:28:45;;;;;;;3.50;0.50;;;;;;;19.92;58.88;101399.75;10090966;28;20099;-68
2021/08/27 16:33:42;;;;;;;0.82;0.40;;;;;;;20.14;57.48;101405.72;10097106;28;20468;-68
2021/08/27 16:38:38;;;;;;;6.05;0.80;;;;;;;20.59;58.95;101415.34;10101495;28;20497;-68
2021/08/27 16:43:35;;;;;;;3.38;0.40;;;;;;;20.77;57.13;101416.44;10110548;28;20046;-68
2021/08/27 16:48:31;;;;;;;1.35;0.22;;;;;;;21.41;56.46;101425.03;10104869;28;20698;-68
2021/08/27 16:53:28;;;;;;;2.10;0.57;;;;;;;22.31;53.05;101434.56;10109718;28;20086;-68
2021/08/27 16:58:24;;;;;;;2.58;0.40;;;;;;;23.12;52.69;101427.38;10113268;28;20081;-68
2021/08/27 17:03:21;;;;;;;4.55;0.60;;;;;;;23.29;50.68;101435.06;10107846;28;20039;-68
2021/08/27 17:08:21;;;;;;;2.28;0.50;;;;;;;23.02;50.22;101434.50;10109452;28;20046;-68
2021/08/27 17:13:17;;;;;;;1.38;0.28;;;;;;;21.98;53.19;101433.38;10110540;28;20054;-68
2021/08/27 17:18:14;;;;;;;4.68;0.50;;;;;;;21.13;54.84;101433.72;10111169;28;20105;-68
2021/08/27 17:23:11;;;;;;;2.47;0.40;;;;;;;20.60;55.53;101444.72;10111345;28;20074;-68
2021/08/27 17:28:08;;;;;;;3.15;0.40;;;;;;;20.18;57.12;101453.78;10110028;28;20054;-68
2021/08/27 17:33:04;;;;;;;1.75;0.50;;;;;;;19.78;57.50;101454.94;10109677;28;20409;-68
2021/08/27 17:38:01;;;;;;;1.77;0.40;;;;;;;19.46;59.34;101443.88;10108263;28;20059;-68
2021/08/27 17:42:57;;;;;;;9.77;1.05;;;;;;;19.14;59.77;101443.91;10109960;28;20043;-67
2021/08/27 17:47:54;;;;;;;3.88;0.90;;;;;;;18.95;60.96;101446.63;10103713;28;20465;-68
2021/08/27 17:52:50;;;;;;;3.00;0.50;;;;;;;18.76;61.85;101450.06;10106700;28;20062;-67
2021/08/27 17:57:46;;;;;;;3.42;0.82;;;;;;;18.56;62.26;101456.66;10104513;28;20122;-70
2021/08/27 18:02:43;;;;;;;4.75;0.90;;;;;;;18.37;63.22;101465.63;10106799;28;20123;-67
2021/08/27 18:07:40;;;;;;;9.30;1.30;;;;;;;18.18;64.17;101469.84;10107721;28;20093;-69
2021/08/27 18:12:37;;;;;;;3.20;1.08;;;;;;;18.05;65.49;101473.81;10105728;28;20121;-69
2021/08/27 18:17:34;;;;;;;2.35;0.90;;;;;;;17.89;65.94;101484.78;10108867;28;20472;-69
2021/08/27 18:22:30;;;;;;;2.42;0.85;;;;;;;17.73;66.59;101483.88;10106699;28;20478;-69
2021/08/27 18:27:27;;;;;;;4.22;0.90;;;;;;;17.59;66.41;101492.53;10096770;28;20124;-69
2021/08/27 18:32:23;;;;;;;4.60;0.77;;;;;;;17.40;66.84;101499.44;10106156;28;20105;-69
2021/08/27 18:37:20;;;;;;;3.42;0.80;;;;;;;17.32;67.91;101499.56;10100921;28;20085;-69
2021/08/27 18:42:16;;;;;;;4.22;1.23;;;;;;;17.17;68.36;101514.84;10099445;28;20146;-69
2021/08/27 18:47:13;;;;;;;3.20;1.17;;;;;;;17.07;68.56;101527.16;10105857;28;20563;-70
2021/08/27 18:52:09;;;;;;;3.95;1.23;;;;;;;16.98;68.75;101518.97;10103672;28;20080;-69
2021/08/27 18:57:06;;;;;;;2.95;1.10;;;;;;;16.93;69.50;101527.47;10103042;28;20042;-69
2021/08/27 19:02:02;;;;;;;5.10;1.17;;;;;;;16.84;70.19;101524.00;10106176;28;20058;-70
2021/08/27 19:06:59;;;;;;;3.25;1.30;;;;;;;16.73;70.48;101518.09;10101031;28;20046;-69
2021/08/27 19:11:56;;;;;;;3.88;1.58;;;;;;;16.65;70.60;101515.41;10109104;28;20077;-69
2021/08/27 19:16:53;;;;;;;3.38;1.50;;;;;;;16.54;71.22;101526.03;10098410;28;20039;-68
2021/08/27 19:21:50;;;;;;;3.70;1.35;;;;;;;16.47;71.54;101531.31;10108797;28;20101;-68
2021/08/27 19:26:46;;;;;;;3.45;1.35;;;;;;;16.40;72.08;101540.13;10096779;28;20067;-68
2021/08/27 19:31:42;;;;;;;4.75;1.55;;;;;;;16.33;72.57;101543.44;10096599;28;20405;-68
2021/08/27 19:36:39;;;;;;;4.97;2.05;;;;;;;16.30;72.78;101535.03;10106802;28;20077;-68
2021/08/27 19:41:35;;;;;;;4.88;1.92;;;;;;;16.25;72.90;101535.25;10095914;28;20102;-68
2021/08/27 19:46:32;;;;;;;4.32;1.50;;;;;;;16.22;73.33;101541.41;10095401;28;20047;-68
2021/08/27 19:51:28;;;;;;;5.22;1.85;;;;;;;16.22;73.67;101544.97;10105295;28;20428;-69
2021/08/27 19:56:25;;;;;;;3.70;1.70;;;;;;;16.20;73.76;101539.81;10106308;28;20047;-68
2021/08/27 20:01:22;;;;;;;3.78;1.73;;;;;;;16.14;73.54;101537.59;10097412;28;20047;-68
2021/08/27 20:06:19;;;;;;;4.72;1.52;;;;;;;16.17;74.21;101548.72;10102370;28;20061;-68
2021/08/27 20:11:16;;;;;;;6.88;1.92;;;;;;;16.15;73.84;101553.81;10100894;28;20134;-67
2021/08/27 20:16:14;;;;;;;4.90;1.77;;;;;;;16.05;72.91;101553.38;10102680;28;20051;-68
2021/08/27 20:21:10;;;;;;;4.15;2.05;;;;;;;16.16;73.05;101549.88;10106044;28;20081;-68
2021/08/27 20:26:07;;;;;;;4.25;1.85;;;;;;;16.15;73.66;101539.19;10109446;28;20129;-68
2021/08/27 20:31:03;;;;;;;6.03;1.95;;;;;;;16.14;73.81;101541.13;10111466;28;20047;-68
2021/08/27 20:36:00;;;;;;;6.20;2.00;;;;;;;16.12;73.59;101543.41;10108735;28;20805;-68
2021/08/27 20:40:56;;;;;;;4.05;1.92;;;;;;;16.14;74.46;101546.66;10108693;28;20085;-68
2021/08/27 20:45:53;;;;;;;6.15;2.60;;;;;;;16.13;74.63;101549.75;10101051;28;20109;-68
2021/08/27 20:50:49;;;;;;;8.30;2.53;;;;;;;16.14;74.68;101552.19;10107321;28;20075;-68
2021/08/27 20:55:46;;;;;;;9.15;3.47;;;;;;;16.13;74.08;101545.06;10111612;28;20038;-68
2021/08/27 21:00:42;;;;;;;7.18;3.60;;;;;;;16.13;73.96;101545.06;10105703;28;20047;-68
2021/08/27 21:05:40;;;;;;;7.43;3.40;;;;;;;16.14;74.00;101543.91;10110213;28;20087;-68
2021/08/27 21:10:37;;;;;;;7.72;2.83;;;;;;;16.14;74.90;101538.38;10114371;28;20049;-68
2021/08/27 21:15:34;;;;;;;6.50;3.60;;;;;;;16.13;73.89;101539.53;10100571;28;20051;-69
2021/08/27 21:20:30;;;;;;;9.85;3.60;;;;;;;16.07;73.70;101535.34;10111303;28;20047;-69
2021/08/27 21:25:27;;;;;;;9.70;4.43;;;;;;;16.04;74.66;101530.50;10103728;28;20113;-69
2021/08/27 21:30:23;;;;;;;6.05;3.40;;;;;;;15.94;74.99;101530.88;10109940;28;20109;-69
2021/08/27 21:35:20;;;;;;;7.68;3.47;;;;;;;15.95;75.27;101532.53;10108084;28;20051;-69
2021/08/27 21:40:16;;;;;;;6.15;2.95;;;;;;;15.91;75.93;101542.59;10109174;28;20075;-69
2021/08/27 21:45:13;;;;;;;7.75;4.28;;;;;;;15.86;76.38;101535.31;10102690;28;20082;-69
2021/08/27 21:50:10;;;;;;;8.57;3.65;;;;;;;15.78;77.06;101542.53;10109908;28;20051;-68
2021/08/27 21:55:07;;;;;;;6.03;3.70;;;;;;;15.57;78.72;101533.34;10104254;28;20126;-69
2021/08/27 22:00:07;;;;;;;6.95;3.88;;;;;;;15.53;79.58;101537.91;10105508;28;20047;-69
2021/08/27 22:05:18;;;;;;;9.40;4.27;;;;;;;15.38;81.03;101530.19;10094065;28;20058;-68
2021/08/27 22:10:15;;;;;;;9.00;3.90;;;;;;;15.36;81.96;101538.78;10106166;28;20101;-68
2021/08/27 22:15:11;;;;;;;6.43;3.90;;;;;;;15.28;83.32;101545.16;10104511;28;20077;-69
2021/08/27 22:20:08;;;;;;;7.03;4.00;;;;;;;15.32;83.93;101544.16;10105239;28;20490;-68
2021/08/27 22:25:06;;;;;;;7.50;4.05;;;;;;;15.29;84.36;101544.81;10100525;28;20055;-68
2021/08/27 22:30:03;;;;;;;7.95;4.68;;;;;;;15.29;84.93;101544.81;10103198;28;20454;-68
2021/08/27 22:35:00;;;;;;;9.00;5.22;;;;;;;15.29;85.53;101544.81;10101985;28;20659;-68
2021/08/27 22:39:56;;;;;;;7.18;4.28;;;;;;;15.28;86.54;101542.41;10103123;28;20055;-69
2021/08/27 22:44:53;;;;;;;9.80;5.10;;;;;;;15.26;86.56;101537.19;10103268;28;20046;-69
2021/08/27 22:49:50;;;;;;;7.03;4.13;;;;;;;15.28;86.77;101536.88;10103471;28;20046;-68